North River — WYR2549 — position and weather

sailwx.info

Track history (hours):
 
Tides and Currents Weather Stations Pressure Air Temp Water Temp Dewpoint Dewpoint Depression Visibility Wind Speed Wind Dir Waves Ship Positions

North River

Owner: CITY OF NEW YORK, Brooklyn, NY. More information available from US FCC via Universal Licensing System and Coast Guard Vessel Documentation Center.

Last reported at 2018-Aug-11 18:14 UTC. Time now 2018-Aug-14 07:03 UTC.
Position N 40°46' W 073°57'.

Length 78 m.

Type: Tanker. MMSI: 367074110.

Date/timePositionNaut miles runAvg speedWind from/ knotsBaromVisibWave heightAir tempDewpointWater temp
2018-Aug-11 18:14N 40°46' W 073°57'2 7.5
2018-Aug-11 18:00N 40°44' W 073°58'3 5.6
2018-Aug-11 17:30N 40°42' W 074°00'8 3.0
2018-Aug-11 14:52N 40°50' W 073°58'3 8.5
2018-Aug-11 14:28N 40°47' W 073°60'510.6
2018-Aug-11 14:00N 40°42' W 074°01'4 8.9
2018-Aug-11 13:30N 40°45' W 073°58'0 0.0
2018-Aug-10 17:46N 40°46' W 073°57'2 7.6
2018-Aug-10 17:29N 40°43' W 073°58'3 5.7
2018-Aug-10 17:00N 40°42' W 074°01'611.6
2018-Aug-10 16:29N 40°48' W 073°59'2 2.8
2018-Aug-10 15:50N 40°50' W 073°58'0 0.0
2018-Aug-10 15:30N 40°50' W 073°58'0 0.0
2018-Aug-10 14:55N 40°50' W 073°58'0 0.1
2018-Aug-10 14:30N 40°50' W 073°58'4 7.8
2018-Aug-10 13:59N 40°46' W 074°00'4 9.1
2018-Aug-10 13:31N 40°42' W 074°01'5 9.0
2018-Aug-10 13:01N 40°46' W 073°57'0 0.0
2018-Aug-09 22:01N 40°46' W 073°57'016.5
2018-Aug-09 22:00N 40°46' W 073°57'714.4
2018-Aug-09 21:30N 40°39' W 074°02'710.7
2018-Aug-09 20:50N 40°34' W 073°56'3 9.6
2018-Aug-09 20:29N 40°36' W 073°53'1 0.4
2018-Aug-09 17:07N 40°37' W 073°53'211.3
2018-Aug-09 16:59N 40°36' W 073°53'2 0.8
2018-Aug-09 14:24N 40°35' W 073°50'10 8.5
2018-Aug-09 13:15N 40°36' W 074°03'314.3
2018-Aug-09 13:00N 40°40' W 074°03'713.2
2018-Aug-09 12:30N 40°45' W 073°58'  
Track history (hours):
 
Tides and Currents Weather Stations Pressure Air Temp Water Temp Dewpoint Dewpoint Depression Visibility Wind Speed Wind Dir Waves Ship Positions

North River

Owner: CITY OF NEW YORK, Brooklyn, NY. More information available from US FCC via Universal Licensing System and Coast Guard Vessel Documentation Center.

Last reported at 2018-Aug-11 18:14 UTC. Time now 2018-Aug-14 07:03 UTC.
Position N 40°46' W 073°57'.

Length 78 m.

Type: Tanker. MMSI: 367074110.

Date/timePositionNaut miles runAvg speedWind from/ knotsBaromVisibWave heightAir tempDewpointWater temp
2018-Aug-11 18:14N 40°46' W 073°57'2 7.5
2018-Aug-11 18:00N 40°44' W 073°58'3 5.6
2018-Aug-11 17:30N 40°42' W 074°00'8 3.0
2018-Aug-11 14:52N 40°50' W 073°58'3 8.5
2018-Aug-11 14:28N 40°47' W 073°60'510.6
2018-Aug-11 14:00N 40°42' W 074°01'4 8.9
2018-Aug-11 13:30N 40°45' W 073°58'0 0.0
2018-Aug-10 17:46N 40°46' W 073°57'2 7.6
2018-Aug-10 17:29N 40°43' W 073°58'3 5.7
2018-Aug-10 17:00N 40°42' W 074°01'611.6
2018-Aug-10 16:29N 40°48' W 073°59'2 2.8
2018-Aug-10 15:50N 40°50' W 073°58'0 0.0
2018-Aug-10 15:30N 40°50' W 073°58'0 0.0
2018-Aug-10 14:55N 40°50' W 073°58'0 0.1
2018-Aug-10 14:30N 40°50' W 073°58'4 7.8
2018-Aug-10 13:59N 40°46' W 074°00'4 9.1
2018-Aug-10 13:31N 40°42' W 074°01'5 9.0
2018-Aug-10 13:01N 40°46' W 073°57'0 0.0
2018-Aug-09 22:01N 40°46' W 073°57'016.5
2018-Aug-09 22:00N 40°46' W 073°57'714.4
2018-Aug-09 21:30N 40°39' W 074°02'710.7
2018-Aug-09 20:50N 40°34' W 073°56'3 9.6
2018-Aug-09 20:29N 40°36' W 073°53'1 0.4
2018-Aug-09 17:07N 40°37' W 073°53'211.3
2018-Aug-09 16:59N 40°36' W 073°53'2 0.8
2018-Aug-09 14:24N 40°35' W 073°50'10 8.5
2018-Aug-09 13:15N 40°36' W 074°03'314.3
2018-Aug-09 13:00N 40°40' W 074°03'713.2
2018-Aug-09 12:30N 40°45' W 073°58'  

Dump ship's entire track history